createdAt,value
2022-08-10T00:00:50.238Z,19.63
2022-08-10T00:01:51.418Z,19.60
2022-08-10T00:02:50.211Z,19.60
2022-08-10T00:03:50.197Z,19.56
2022-08-10T00:04:50.207Z,19.55
2022-08-10T00:05:53.117Z,19.55
2022-08-10T00:06:50.181Z,19.56
2022-08-10T00:07:50.202Z,19.56
2022-08-10T00:08:50.162Z,19.56
2022-08-10T00:09:51.357Z,19.56
2022-08-10T00:10:50.145Z,19.60
2022-08-10T00:11:50.128Z,19.60
2022-08-10T00:12:53.688Z,19.57
2022-08-10T00:13:50.074Z,19.57
2022-08-10T00:14:50.099Z,19.56
2022-08-10T00:15:53.437Z,19.56
2022-08-10T00:16:50.072Z,19.53
2022-08-10T00:17:50.024Z,19.52
2022-08-10T00:18:50.033Z,19.52
2022-08-10T00:20:02.502Z,19.49
2022-08-10T00:20:50.988Z,19.47
2022-08-10T00:21:49.992Z,19.45
2022-08-10T00:22:57.464Z,19.43
2022-08-10T00:23:50.982Z,19.42
2022-08-10T00:24:49.926Z,19.38
2022-08-10T00:25:49.970Z,19.37
2022-08-10T00:27:52.278Z,19.32
2022-08-10T00:28:02.637Z,19.32
2022-08-10T00:28:50.913Z,19.32
2022-08-10T00:29:49.862Z,19.31
2022-08-10T00:30:49.942Z,19.28
2022-08-10T00:31:58.772Z,19.27
2022-08-10T00:32:50.835Z,19.25
2022-08-10T00:33:49.823Z,19.23
2022-08-10T00:34:49.792Z,19.20
2022-08-10T00:35:49.841Z,19.20
2022-08-10T00:36:49.809Z,19.17
2022-08-10T00:37:56.371Z,19.16
2022-08-10T00:38:54.518Z,19.15
2022-08-10T00:39:49.792Z,19.13
2022-08-10T00:40:49.798Z,19.10
2022-08-10T00:42:01.834Z,19.10
2022-08-10T00:42:50.725Z,19.09
2022-08-10T00:43:49.709Z,19.07
2022-08-10T00:44:49.688Z,19.05
2022-08-10T00:45:59.143Z,19.02
2022-08-10T00:46:50.671Z,19.02
2022-08-10T00:47:49.662Z,19.00
2022-08-10T00:49:00.643Z,18.97
2022-08-10T00:49:50.646Z,18.96
2022-08-10T00:50:49.617Z,18.96
2022-08-10T00:51:49.597Z,18.93
2022-08-10T00:52:49.577Z,18.93
2022-08-10T00:53:49.557Z,18.90
2022-08-10T00:54:49.543Z,18.87
2022-08-10T00:57:10.118Z,18.86
2022-08-10T00:57:16.970Z,18.86
2022-08-10T00:57:54.779Z,18.84
2022-08-10T00:58:50.513Z,18.82
2022-08-10T00:59:58.915Z,18.79
2022-08-10T01:00:50.486Z,18.78
2022-08-10T01:02:09.257Z,18.75
2022-08-10T01:02:50.610Z,18.75
2022-08-10T01:04:58.075Z,18.75
2022-08-10T01:04:59.638Z,18.72
2022-08-10T01:05:51.450Z,18.69
2022-08-10T01:06:49.472Z,18.68
2022-08-10T01:07:49.462Z,18.66
2022-08-10T01:08:49.409Z,18.65
2022-08-10T01:09:55.683Z,18.63
2022-08-10T01:10:50.387Z,18.61
2022-08-10T01:12:39.964Z,18.60
2022-08-10T01:12:50.530Z,18.59
2022-08-10T01:13:49.323Z,18.57
2022-08-10T01:14:49.313Z,18.57
2022-08-10T01:15:49.292Z,18.54
2022-08-10T01:16:53.161Z,18.54
2022-08-10T01:17:50.271Z,18.53
2022-08-10T01:18:49.332Z,18.51
2022-08-10T01:19:49.270Z,18.50
2022-08-10T01:20:49.212Z,18.50
2022-08-10T01:21:56.828Z,18.47
2022-08-10T01:22:50.223Z,18.47
2022-08-10T01:23:49.194Z,18.44
2022-08-10T01:24:49.226Z,18.45
2022-08-10T01:26:11.022Z,18.44
2022-08-10T01:26:50.141Z,18.44
2022-08-10T01:27:49.168Z,18.44
2022-08-10T01:28:49.138Z,18.45
2022-08-10T01:29:49.146Z,18.47
2022-08-10T01:30:49.100Z,18.47
2022-08-10T01:31:49.119Z,18.49
2022-08-10T01:32:49.060Z,18.47
2022-08-10T01:33:58.564Z,18.45
2022-08-10T01:34:50.032Z,18.47
2022-08-10T01:35:49.036Z,18.45
2022-08-10T01:36:49.009Z,18.44
2022-08-10T01:37:51.946Z,18.42
2022-08-10T01:38:49.027Z,18.42
2022-08-10T01:39:49.057Z,18.39
2022-08-10T01:40:49.010Z,18.38
2022-08-10T01:41:48.968Z,18.36
2022-08-10T01:42:48.926Z,18.36
2022-08-10T01:43:48.936Z,18.34
2022-08-10T01:44:48.921Z,18.32
2022-08-10T01:45:48.891Z,18.32
2022-08-10T01:46:48.897Z,18.29
2022-08-10T01:47:49.916Z,18.27
2022-08-10T01:48:48.907Z,18.27
2022-08-10T01:49:48.898Z,18.24
2022-08-10T01:50:57.061Z,18.24
2022-08-10T01:51:49.834Z,18.23
2022-08-10T01:52:48.795Z,18.23
2022-08-10T01:53:48.806Z,18.20
2022-08-10T01:54:48.808Z,18.17
2022-08-10T01:55:48.755Z,18.17
2022-08-10T01:56:48.757Z,18.16
2022-08-10T01:57:48.748Z,18.16
2022-08-10T01:58:48.787Z,18.16
2022-08-10T02:00:00.577Z,18.14
2022-08-10T02:00:49.741Z,18.11
2022-08-10T02:01:48.793Z,18.13
2022-08-10T02:02:48.700Z,18.10
2022-08-10T02:04:05.426Z,18.10
2022-08-10T02:04:49.665Z,18.08
2022-08-10T02:05:48.621Z,18.06
2022-08-10T02:06:48.611Z,18.05
2022-08-10T02:07:48.631Z,18.03
2022-08-10T02:08:48.697Z,18.03
2022-08-10T02:09:49.625Z,18.03
2022-08-10T02:10:48.600Z,18.01
2022-08-10T02:12:05.982Z,18.03
2022-08-10T02:12:53.420Z,18.02
2022-08-10T02:13:48.542Z,18.02
2022-08-10T02:14:48.549Z,18.01
2022-08-10T02:16:02.261Z,17.99
2022-08-10T02:16:49.510Z,17.98
2022-08-10T02:17:59.678Z,17.98
2022-08-10T02:18:49.480Z,17.98
2022-08-10T02:19:48.515Z,17.99
2022-08-10T02:20:48.663Z,17.99
2022-08-10T02:22:35.062Z,17.98
2022-08-10T02:22:49.602Z,17.98
2022-08-10T02:23:54.194Z,17.96
2022-08-10T02:24:49.496Z,17.96
2022-08-10T02:25:48.385Z,17.96
2022-08-10T02:26:48.358Z,17.98
2022-08-10T02:27:49.355Z,17.99
2022-08-10T02:28:48.341Z,17.98
2022-08-10T02:29:49.206Z,17.98
2022-08-10T02:30:48.348Z,17.98
2022-08-10T02:31:51.395Z,17.96
2022-08-10T02:32:52.719Z,17.96
2022-08-10T02:33:57.057Z,17.95
2022-08-10T02:34:49.325Z,17.95
2022-08-10T02:35:55.347Z,17.92
2022-08-10T02:36:49.415Z,17.94
2022-08-10T02:37:48.228Z,17.90
2022-08-10T02:38:58.299Z,17.90
2022-08-10T02:39:49.196Z,17.88
2022-08-10T02:45:02.451Z,17.87
2022-08-10T02:45:15.102Z,17.86
2022-08-10T02:45:19.998Z,17.83
2022-08-10T02:45:22.578Z,17.81
2022-08-10T02:45:24.118Z,17.84
2022-08-10T02:45:49.125Z,17.80
2022-08-10T02:46:48.135Z,17.80
2022-08-10T02:47:52.107Z,17.79
2022-08-10T02:48:52.012Z,17.77
2022-08-10T02:49:48.075Z,17.76
2022-08-10T02:50:48.084Z,17.76
2022-08-10T02:52:06.923Z,17.74
2022-08-10T02:52:49.050Z,17.73
2022-08-10T02:53:51.381Z,17.74
2022-08-10T02:54:49.141Z,17.74
2022-08-10T02:55:47.995Z,17.73
2022-08-10T02:56:48.002Z,17.74
2022-08-10T02:58:16.608Z,17.73
2022-08-10T02:58:48.986Z,17.73
2022-08-10T02:59:47.941Z,17.73
2022-08-10T03:00:48.084Z,17.73
2022-08-10T03:01:48.007Z,17.71
2022-08-10T03:02:47.942Z,17.71
2022-08-10T03:03:47.881Z,17.71
2022-08-10T03:04:55.855Z,17.71
2022-08-10T03:05:48.871Z,17.69
2022-08-10T03:06:47.879Z,17.69
2022-08-10T03:07:47.838Z,17.68
2022-08-10T03:08:47.844Z,17.66
2022-08-10T03:09:47.830Z,17.66
2022-08-10T03:10:47.802Z,17.68
2022-08-10T03:12:35.595Z,17.66
2022-08-10T03:12:49.127Z,17.65
2022-08-10T03:13:59.623Z,17.62
2022-08-10T03:14:48.803Z,17.60
2022-08-10T03:15:47.738Z,17.60
2022-08-10T03:16:47.739Z,17.58
2022-08-10T03:17:57.565Z,17.57
2022-08-10T03:18:48.887Z,17.55
2022-08-10T03:20:35.415Z,17.54
2022-08-10T03:20:48.746Z,17.52
2022-08-10T03:21:47.679Z,17.52
2022-08-10T03:22:47.701Z,17.50
2022-08-10T03:23:47.617Z,17.49
2022-08-10T03:24:47.770Z,17.46
2022-08-10T03:25:54.302Z,17.43
2022-08-10T03:26:48.633Z,17.43
2022-08-10T03:27:47.575Z,17.42
2022-08-10T03:28:47.575Z,17.40
2022-08-10T03:30:23.430Z,17.38
2022-08-10T03:30:48.534Z,17.36
2022-08-10T03:31:47.532Z,17.36
2022-08-10T03:32:47.526Z,17.36
2022-08-10T03:33:47.483Z,17.35
2022-08-10T03:34:47.559Z,17.31
2022-08-10T03:36:40.580Z,17.30
2022-08-10T03:36:48.484Z,17.28
2022-08-10T03:37:47.461Z,17.28
2022-08-10T03:38:47.443Z,17.27
2022-08-10T03:39:47.442Z,17.25
2022-08-10T03:40:47.429Z,17.24
2022-08-10T03:41:53.156Z,17.24
2022-08-10T03:42:48.422Z,17.22
2022-08-10T03:43:47.394Z,17.20
2022-08-10T03:44:50.516Z,17.20
2022-08-10T03:45:54.763Z,17.20
2022-08-10T03:46:48.390Z,17.21
2022-08-10T03:47:47.341Z,17.20
2022-08-10T03:48:49.209Z,17.17
2022-08-10T03:49:47.302Z,17.18
2022-08-10T03:50:51.909Z,17.15
2022-08-10T03:51:48.291Z,17.15
2022-08-10T03:52:47.248Z,17.13
2022-08-10T03:54:04.639Z,17.12
2022-08-10T03:54:48.259Z,17.12
2022-08-10T03:56:30.499Z,17.09
2022-08-10T03:56:48.320Z,17.10
2022-08-10T03:57:49.554Z,17.09
2022-08-10T03:58:47.167Z,17.06
2022-08-10T03:59:47.186Z,17.07
2022-08-10T04:00:47.258Z,17.05
2022-08-10T04:02:43.206Z,17.05
2022-08-10T04:02:48.447Z,17.03
2022-08-10T04:03:47.106Z,17.02
2022-08-10T04:04:47.097Z,17.02
2022-08-10T04:05:47.068Z,17.02
2022-08-10T04:06:51.599Z,17.00
2022-08-10T04:07:48.132Z,17.00
2022-08-10T04:08:47.038Z,16.97
2022-08-10T04:09:54.553Z,16.99
2022-08-10T04:10:48.031Z,16.97
2022-08-10T04:11:47.005Z,16.94
2022-08-10T04:12:46.987Z,16.94
2022-08-10T04:13:46.961Z,16.94
2022-08-10T04:14:49.451Z,16.92
2022-08-10T04:15:47.002Z,16.91
2022-08-10T04:16:46.968Z,16.91
2022-08-10T04:18:03.177Z,16.91
2022-08-10T04:18:47.938Z,16.88
2022-08-10T04:19:46.900Z,16.88
2022-08-10T04:20:46.892Z,16.88
2022-08-10T04:21:46.880Z,16.88
2022-08-10T04:22:46.865Z,16.87
2022-08-10T04:23:51.153Z,16.87
2022-08-10T04:24:47.845Z,16.87
2022-08-10T04:25:46.813Z,16.85
2022-08-10T04:26:46.812Z,16.85
2022-08-10T04:27:46.803Z,16.85
2022-08-10T04:28:46.780Z,16.85
2022-08-10T04:29:46.780Z,16.84
2022-08-10T04:30:46.778Z,16.85
2022-08-10T04:31:46.760Z,16.82
2022-08-10T04:32:46.737Z,16.82
2022-08-10T04:33:46.719Z,16.81
2022-08-10T04:34:46.700Z,16.81
2022-08-10T04:35:46.725Z,16.80
2022-08-10T04:36:46.677Z,16.77
2022-08-10T04:37:47.690Z,16.77
2022-08-10T04:38:46.648Z,16.77
2022-08-10T04:39:46.714Z,16.77
2022-08-10T04:40:46.627Z,16.77
2022-08-10T04:41:47.503Z,16.74
2022-08-10T04:42:46.610Z,16.76
2022-08-10T04:43:46.570Z,16.76
2022-08-10T04:44:46.557Z,16.76
2022-08-10T04:45:48.932Z,16.74
2022-08-10T04:46:58.099Z,16.74
2022-08-10T04:48:00.412Z,16.76
2022-08-10T04:49:01.916Z,16.74
2022-08-10T04:49:54.685Z,16.73
2022-08-10T04:50:47.515Z,16.73
2022-08-10T04:51:46.490Z,16.74
2022-08-10T04:52:46.467Z,16.76
2022-08-10T04:54:05.362Z,16.76
2022-08-10T04:54:47.443Z,16.77
2022-08-10T04:55:46.465Z,16.77
2022-08-10T04:56:46.444Z,16.77
2022-08-10T04:57:46.457Z,16.77
2022-08-10T04:58:46.388Z,16.77
2022-08-10T04:59:46.440Z,16.77
2022-08-10T05:00:46.489Z,16.80
2022-08-10T05:02:27.069Z,16.80
2022-08-10T05:02:47.343Z,16.81
2022-08-10T05:04:35.509Z,16.81
2022-08-10T05:04:47.362Z,16.81
2022-08-10T05:05:46.417Z,16.82
2022-08-10T05:06:46.321Z,16.81
2022-08-10T05:07:54.116Z,16.82
2022-08-10T05:08:47.273Z,16.82
2022-08-10T05:10:03.881Z,16.85
2022-08-10T05:10:47.315Z,16.87
2022-08-10T05:11:46.219Z,16.87
2022-08-10T05:12:46.230Z,16.90
2022-08-10T05:13:46.246Z,16.90
2022-08-10T05:14:46.316Z,16.91
2022-08-10T05:15:46.180Z,16.92
2022-08-10T05:16:46.160Z,16.95
2022-08-10T05:18:08.531Z,16.97
2022-08-10T05:18:47.155Z,16.99
2022-08-10T05:20:03.172Z,16.99
2022-08-10T05:20:50.122Z,17.02
2022-08-10T05:22:03.545Z,17.02
2022-08-10T05:22:47.273Z,17.05
2022-08-10T05:23:46.091Z,17.06
2022-08-10T05:24:49.850Z,17.07
2022-08-10T05:25:46.025Z,17.09
2022-08-10T05:27:00.235Z,17.10
2022-08-10T05:27:47.036Z,17.12
2022-08-10T05:28:46.027Z,17.13
2022-08-10T05:29:46.040Z,17.13
2022-08-10T05:30:47.015Z,17.18
2022-08-10T05:31:45.958Z,17.20
2022-08-10T05:32:59.166Z,17.24
2022-08-10T05:33:46.955Z,17.31
2022-08-10T05:34:45.980Z,17.32
2022-08-10T05:35:57.892Z,17.36
2022-08-10T05:36:46.895Z,17.42
2022-08-10T05:38:13.490Z,17.45
2022-08-10T05:38:46.864Z,17.49
2022-08-10T05:39:45.936Z,17.52
2022-08-10T05:40:46.702Z,17.54
2022-08-10T05:41:48.786Z,17.58
2022-08-10T05:42:46.889Z,17.65
2022-08-10T05:43:45.802Z,17.66
2022-08-10T05:44:45.845Z,17.73
2022-08-10T05:46:19.267Z,17.79
2022-08-10T05:46:46.792Z,17.80
2022-08-10T05:48:57.768Z,17.84
2022-08-10T05:48:59.377Z,17.88
2022-08-10T05:49:46.731Z,17.94
2022-08-10T05:50:45.764Z,17.98
2022-08-10T05:51:45.682Z,18.01
2022-08-10T05:52:45.715Z,18.03
2022-08-10T05:54:01.309Z,18.05
2022-08-10T05:54:46.719Z,18.06
2022-08-10T05:55:45.650Z,18.08
2022-08-10T05:56:56.215Z,18.10
2022-08-10T05:57:46.643Z,18.11
2022-08-10T05:58:45.611Z,18.14
2022-08-10T06:00:31.185Z,18.20
2022-08-10T06:00:50.134Z,18.21
2022-08-10T06:02:32.158Z,18.26
2022-08-10T06:02:47.028Z,18.32
2022-08-10T06:03:45.548Z,18.36
2022-08-10T06:04:45.536Z,18.41
2022-08-10T06:05:45.519Z,18.47
2022-08-10T06:06:45.512Z,18.51
2022-08-10T06:07:45.476Z,18.56
2022-08-10T06:08:45.466Z,18.60
2022-08-10T06:09:59.317Z,18.68
2022-08-10T06:12:23.818Z,18.74
2022-08-10T06:12:26.713Z,18.76
2022-08-10T06:12:55.253Z,18.81
2022-08-10T06:13:59.507Z,18.87
2022-08-10T06:14:51.478Z,18.91
2022-08-10T06:15:51.396Z,18.97
2022-08-10T06:16:46.366Z,19.05
2022-08-10T06:17:45.368Z,19.09
2022-08-10T06:18:46.333Z,19.12
2022-08-10T06:19:45.328Z,19.16
2022-08-10T06:20:45.335Z,19.17
2022-08-10T06:22:00.796Z,19.23
2022-08-10T06:22:46.311Z,19.25
2022-08-10T06:23:45.293Z,19.28
2022-08-10T06:25:10.098Z,19.30
2022-08-10T06:26:11.421Z,19.34
2022-08-10T06:26:46.247Z,19.37
2022-08-10T06:27:45.232Z,19.38
2022-08-10T06:29:02.063Z,19.43
2022-08-10T06:29:46.202Z,19.45
2022-08-10T06:30:45.240Z,19.47
2022-08-10T06:31:48.032Z,19.47
2022-08-10T06:32:45.190Z,19.47
2022-08-10T06:33:45.198Z,19.46
2022-08-10T06:34:45.130Z,19.47
2022-08-10T06:35:45.128Z,19.46
2022-08-10T06:36:45.120Z,19.46
2022-08-10T06:37:50.610Z,19.47
2022-08-10T06:38:46.090Z,19.49
2022-08-10T06:39:45.115Z,19.52
2022-08-10T06:40:45.100Z,19.53
2022-08-10T06:41:57.748Z,19.56
2022-08-10T06:42:46.045Z,19.57
2022-08-10T06:43:45.141Z,19.63
2022-08-10T06:44:45.018Z,19.64
2022-08-10T06:45:44.993Z,19.67
2022-08-10T06:46:48.066Z,19.70
2022-08-10T06:47:44.979Z,19.71
2022-08-10T06:48:45.060Z,19.72
2022-08-10T06:49:44.939Z,19.78
2022-08-10T06:50:58.497Z,19.83
2022-08-10T06:51:45.917Z,19.87
2022-08-10T06:52:46.042Z,19.87
2022-08-10T06:53:54.055Z,19.92
2022-08-10T06:54:45.927Z,19.93
2022-08-10T06:55:50.286Z,19.97
2022-08-10T06:57:01.735Z,20.00
2022-08-10T06:57:45.914Z,20.05
2022-08-10T06:58:45.834Z,20.10
2022-08-10T06:59:44.812Z,20.15
2022-08-10T07:00:44.893Z,20.20
2022-08-10T07:01:44.816Z,20.26
2022-08-10T07:02:45.781Z,20.30
2022-08-10T07:03:44.764Z,20.32
2022-08-10T07:04:44.765Z,20.35
2022-08-10T07:05:48.003Z,20.40
2022-08-10T07:06:45.725Z,20.44
2022-08-10T07:07:44.764Z,20.48
2022-08-10T07:08:44.703Z,20.51
2022-08-10T07:09:44.676Z,20.54
2022-08-10T07:10:45.939Z,20.57
2022-08-10T07:11:44.681Z,20.61
2022-08-10T07:12:44.683Z,20.61
2022-08-10T07:14:14.146Z,20.64
2022-08-10T07:14:49.515Z,20.64
2022-08-10T07:15:58.220Z,20.66
2022-08-10T07:16:45.622Z,20.66
2022-08-10T07:17:44.582Z,20.68
2022-08-10T07:18:44.590Z,20.72
2022-08-10T07:19:49.920Z,20.75
2022-08-10T07:20:45.573Z,20.79
2022-08-10T07:21:48.330Z,20.82
2022-08-10T07:23:22.890Z,20.85
2022-08-10T07:23:58.339Z,20.90
2022-08-10T07:24:45.489Z,20.91
2022-08-10T07:25:44.511Z,20.96
2022-08-10T07:26:44.472Z,20.97
2022-08-10T07:27:58.962Z,21.01
2022-08-10T07:28:48.074Z,21.06
2022-08-10T07:29:54.566Z,21.09
2022-08-10T07:30:45.421Z,21.13
2022-08-10T07:31:57.327Z,21.18
2022-08-10T07:32:45.395Z,21.22
2022-08-10T07:33:44.389Z,21.27
2022-08-10T07:34:44.389Z,21.30
2022-08-10T07:35:44.368Z,21.31
2022-08-10T07:36:44.338Z,21.37
2022-08-10T07:37:44.336Z,21.37
2022-08-10T07:38:44.341Z,21.40
2022-08-10T07:40:03.477Z,21.45
2022-08-10T07:40:45.413Z,21.48
2022-08-10T07:41:44.287Z,21.51
2022-08-10T07:42:45.983Z,21.53
2022-08-10T07:43:44.293Z,21.56
2022-08-10T07:44:44.253Z,21.59
2022-08-10T07:45:48.146Z,21.62
2022-08-10T07:46:47.978Z,21.61
2022-08-10T07:47:54.038Z,21.62
2022-08-10T07:48:45.284Z,21.66
2022-08-10T07:49:44.215Z,21.68
2022-08-10T07:50:44.897Z,21.70
2022-08-10T07:51:44.219Z,21.70
2022-08-10T07:52:44.179Z,21.70
2022-08-10T07:53:44.164Z,21.70
2022-08-10T07:54:44.164Z,21.70
2022-08-10T07:56:03.448Z,21.70
2022-08-10T07:56:49.422Z,21.71
2022-08-10T07:57:44.083Z,21.73
2022-08-10T07:58:46.353Z,21.73
2022-08-10T07:59:45.171Z,21.74
2022-08-10T08:00:44.106Z,21.77
2022-08-10T08:01:44.052Z,21.85
2022-08-10T08:02:43.993Z,21.89
2022-08-10T08:03:44.042Z,21.92
2022-08-10T08:04:43.982Z,21.97
2022-08-10T08:05:58.624Z,22.00
2022-08-10T08:06:44.988Z,22.04
2022-08-10T08:07:43.949Z,22.05
2022-08-10T08:08:43.989Z,22.09
2022-08-10T08:09:57.727Z,22.12
2022-08-10T08:10:44.925Z,22.16
2022-08-10T08:11:43.945Z,22.22
2022-08-10T08:12:43.889Z,22.24
2022-08-10T08:13:43.943Z,22.29
2022-08-10T08:14:43.877Z,22.31
2022-08-10T08:16:17.622Z,22.36
2022-08-10T08:16:44.843Z,22.41
2022-08-10T08:17:43.809Z,22.44
2022-08-10T08:18:58.134Z,22.46
2022-08-10T08:19:46.038Z,22.52
2022-08-10T08:20:44.776Z,22.54
2022-08-10T08:24:07.521Z,22.63
2022-08-10T08:24:08.544Z,22.66
2022-08-10T08:24:10.787Z,22.59
2022-08-10T08:24:44.729Z,22.73
2022-08-10T08:25:43.764Z,22.76
2022-08-10T08:26:46.107Z,22.84
2022-08-10T08:27:47.722Z,22.86
2022-08-10T08:28:43.665Z,22.88
2022-08-10T08:29:43.693Z,22.89
2022-08-10T08:30:48.389Z,22.89
2022-08-10T08:31:59.179Z,22.92
2022-08-10T08:32:44.635Z,22.92
2022-08-10T08:33:47.557Z,22.91
2022-08-10T08:34:43.626Z,22.94
2022-08-10T08:35:43.588Z,22.96
2022-08-10T08:36:43.564Z,22.97
2022-08-10T08:38:29.907Z,22.99
2022-08-10T08:38:44.619Z,23.01
2022-08-10T08:39:44.278Z,23.00
2022-08-10T08:40:43.518Z,23.03
2022-08-10T08:41:43.523Z,23.06
2022-08-10T08:42:43.486Z,23.07
2022-08-10T08:43:43.511Z,23.09
2022-08-10T08:44:43.477Z,23.09
2022-08-10T08:45:51.080Z,23.14
2022-08-10T08:46:44.465Z,23.19
2022-08-10T08:48:04.720Z,23.25
2022-08-10T08:48:44.417Z,23.34
2022-08-10T08:50:07.548Z,23.38
2022-08-10T08:50:44.387Z,23.42
2022-08-10T08:52:07.219Z,23.47
2022-08-10T08:52:44.579Z,23.50
2022-08-10T08:54:02.849Z,23.50
2022-08-10T08:54:48.226Z,23.53
2022-08-10T08:56:00.814Z,23.57
2022-08-10T08:56:49.595Z,23.63
2022-08-10T08:57:49.392Z,23.70
2022-08-10T08:58:44.296Z,23.75
2022-08-10T08:59:43.273Z,23.78
2022-08-10T09:00:43.292Z,23.85
2022-08-10T09:01:43.315Z,23.87
2022-08-10T09:02:43.243Z,23.93
2022-08-10T09:03:43.263Z,23.99
2022-08-10T09:04:43.203Z,24.04
2022-08-10T09:06:00.033Z,24.08
2022-08-10T09:06:44.208Z,24.12
2022-08-10T09:08:00.852Z,24.15
2022-08-10T09:08:44.161Z,24.18
2022-08-10T09:09:43.160Z,24.21
2022-08-10T09:10:43.122Z,24.26
2022-08-10T09:11:43.135Z,24.29
2022-08-10T09:12:43.103Z,24.32
2022-08-10T09:13:43.114Z,24.32
2022-08-10T09:14:43.098Z,24.34
2022-08-10T09:15:43.103Z,24.37
2022-08-10T09:16:43.138Z,24.42
2022-08-10T09:17:43.041Z,24.45
2022-08-10T09:18:43.104Z,24.46
2022-08-10T09:19:43.029Z,24.48
2022-08-10T09:20:42.999Z,24.52
2022-08-10T09:22:12.401Z,24.54
2022-08-10T09:22:44.013Z,24.55
2022-08-10T09:24:03.391Z,24.61
2022-08-10T09:24:43.958Z,24.66
2022-08-10T09:25:42.953Z,24.67
2022-08-10T09:26:42.943Z,24.74
2022-08-10T09:27:43.342Z,24.74
2022-08-10T09:28:42.925Z,24.77
2022-08-10T09:29:42.926Z,24.78
2022-08-10T09:31:03.625Z,24.85
2022-08-10T09:32:54.881Z,24.89
2022-08-10T09:36:15.193Z,24.94
2022-08-10T09:36:23.689Z,25.01
2022-08-10T09:36:25.568Z,24.97
2022-08-10T09:36:29.349Z,25.05
2022-08-10T09:36:43.794Z,25.05
2022-08-10T09:38:02.826Z,25.11
2022-08-10T09:38:43.780Z,25.11
2022-08-10T09:40:57.117Z,25.14
2022-08-10T09:40:59.861Z,25.17
2022-08-10T09:41:43.804Z,25.19
2022-08-10T09:42:42.731Z,25.23
2022-08-10T09:43:42.706Z,25.27
2022-08-10T09:44:58.294Z,25.29
2022-08-10T09:45:43.695Z,25.32
2022-08-10T09:46:42.692Z,25.37
2022-08-10T09:48:02.455Z,25.42
2022-08-10T09:48:43.646Z,25.48
2022-08-10T09:49:54.955Z,25.54
2022-08-10T09:51:28.035Z,25.57
2022-08-10T09:51:46.400Z,25.60
2022-08-10T09:52:42.590Z,25.62
2022-08-10T09:53:42.586Z,25.66
2022-08-10T09:54:42.670Z,25.71
2022-08-10T09:56:19.175Z,25.75
2022-08-10T09:56:43.674Z,25.79
2022-08-10T09:57:46.576Z,25.85
2022-08-10T09:58:46.313Z,25.88
2022-08-10T10:00:00.920Z,25.89
2022-08-10T10:00:43.502Z,25.91
2022-08-10T10:02:02.670Z,25.94
2022-08-10T10:02:43.482Z,25.99
2022-08-10T10:03:42.530Z,26.03
2022-08-10T10:04:42.482Z,26.07
2022-08-10T10:05:51.009Z,26.15
2022-08-10T10:06:43.438Z,26.22
2022-08-10T10:07:42.471Z,26.22
2022-08-10T10:08:43.183Z,26.23
2022-08-10T10:09:42.397Z,26.30
2022-08-10T10:10:47.486Z,26.32
2022-08-10T10:11:43.398Z,26.34
2022-08-10T10:12:42.366Z,26.35
2022-08-10T10:14:01.978Z,26.34
2022-08-10T10:14:43.334Z,26.35
2022-08-10T10:15:42.319Z,26.34
2022-08-10T10:16:42.548Z,26.34
2022-08-10T10:17:42.289Z,26.32
2022-08-10T10:18:42.289Z,26.32
2022-08-10T10:19:42.261Z,26.30
2022-08-10T10:20:42.261Z,26.31
2022-08-10T10:21:56.042Z,26.34
2022-08-10T10:22:47.081Z,26.35
2022-08-10T10:23:42.211Z,26.38
2022-08-10T10:24:42.181Z,26.35
2022-08-10T10:25:51.100Z,26.35
2022-08-10T10:26:43.169Z,26.35
2022-08-10T10:27:42.158Z,26.34
2022-08-10T10:29:19.567Z,26.30
2022-08-10T10:29:56.394Z,26.26
2022-08-10T10:30:43.138Z,26.24
2022-08-10T10:31:42.091Z,26.24
2022-08-10T10:32:42.106Z,26.24
2022-08-10T10:33:42.075Z,26.24
2022-08-10T10:34:42.070Z,26.27
2022-08-10T10:35:42.058Z,26.32
2022-08-10T10:36:55.766Z,26.34
2022-08-10T10:38:01.714Z,26.35
2022-08-10T10:38:43.017Z,26.35
2022-08-10T10:39:42.085Z,26.37
2022-08-10T10:40:41.987Z,26.39
2022-08-10T10:41:56.017Z,26.42
2022-08-10T10:42:45.320Z,26.45
2022-08-10T10:43:41.966Z,26.49
2022-08-10T10:44:42.518Z,26.50
2022-08-10T10:45:50.074Z,26.53
2022-08-10T10:46:42.934Z,26.53
2022-08-10T10:47:41.895Z,26.53
2022-08-10T10:48:41.919Z,26.54
2022-08-10T10:49:41.884Z,26.54
2022-08-10T10:50:41.865Z,26.59
2022-08-10T10:51:41.835Z,26.60
2022-08-10T10:52:41.874Z,26.60
2022-08-10T10:53:41.823Z,26.63
2022-08-10T10:54:41.824Z,26.67
2022-08-10T10:55:50.041Z,26.69
2022-08-10T10:56:42.839Z,26.71
2022-08-10T10:57:58.734Z,26.76
2022-08-10T10:58:42.867Z,26.89
2022-08-10T10:59:55.667Z,26.93
2022-08-10T11:00:42.733Z,26.96
2022-08-10T11:01:41.817Z,26.99
2022-08-10T11:02:41.731Z,27.00
2022-08-10T11:03:41.691Z,27.04
2022-08-10T11:04:41.715Z,27.06
2022-08-10T11:05:41.672Z,27.08
2022-08-10T11:06:41.681Z,27.08
2022-08-10T11:07:41.684Z,27.08
2022-08-10T11:08:41.630Z,27.09
2022-08-10T11:10:05.210Z,27.12
2022-08-10T11:10:47.311Z,27.13
2022-08-10T11:12:00.841Z,27.13
2022-08-10T11:12:45.799Z,27.16
2022-08-10T11:14:26.907Z,27.19
2022-08-10T11:14:42.584Z,27.23
2022-08-10T11:15:42.688Z,27.24
2022-08-10T11:16:42.560Z,27.24
2022-08-10T11:17:42.583Z,27.24
2022-08-10T11:18:41.548Z,27.26
2022-08-10T11:20:02.816Z,27.24
2022-08-10T11:20:42.497Z,27.21
2022-08-10T11:21:41.481Z,27.23
2022-08-10T11:22:41.523Z,27.21
2022-08-10T11:23:41.437Z,27.21
2022-08-10T11:24:48.930Z,27.19
2022-08-10T11:25:43.116Z,27.23
2022-08-10T11:26:41.398Z,27.21
2022-08-10T11:27:41.397Z,27.21
2022-08-10T11:28:41.404Z,27.19
2022-08-10T11:29:43.876Z,27.23
2022-08-10T11:30:42.361Z,27.23
2022-08-10T11:31:41.327Z,27.23
2022-08-10T11:32:41.351Z,27.24
2022-08-10T11:34:49.378Z,27.27
2022-08-10T11:35:42.392Z,27.27
2022-08-10T11:36:41.292Z,27.30
2022-08-10T11:38:28.363Z,27.34
2022-08-10T11:39:04.030Z,27.41
2022-08-10T11:39:49.404Z,27.43
2022-08-10T11:40:42.223Z,27.48
2022-08-10T11:42:08.885Z,27.49
2022-08-10T11:42:42.204Z,27.52
2022-08-10T11:43:41.214Z,27.52
2022-08-10T11:44:41.235Z,27.59
2022-08-10T11:45:51.993Z,27.64
2022-08-10T11:46:42.175Z,27.69
2022-08-10T11:47:41.257Z,27.74
2022-08-10T11:48:54.579Z,27.79
2022-08-10T11:49:42.104Z,27.83
2022-08-10T11:50:41.160Z,27.84
2022-08-10T11:51:41.096Z,27.87
2022-08-10T11:52:41.192Z,27.91
2022-08-10T11:53:41.134Z,27.94
2022-08-10T11:54:41.042Z,27.98
2022-08-10T11:55:41.332Z,28.02
2022-08-10T11:56:41.042Z,28.03
2022-08-10T11:57:53.801Z,28.05
2022-08-10T11:58:42.014Z,28.05
2022-08-10T11:59:41.042Z,28.06
2022-08-10T12:00:40.960Z,28.08
2022-08-10T12:01:40.986Z,28.12
2022-08-10T12:02:41.199Z,28.12
2022-08-10T12:03:40.934Z,28.12
2022-08-10T12:04:40.921Z,28.16
2022-08-10T12:05:53.824Z,28.14
2022-08-10T12:06:55.361Z,28.14
2022-08-10T12:08:54.676Z,28.16
2022-08-10T12:10:06.143Z,28.17
2022-08-10T12:10:08.577Z,28.17
2022-08-10T12:10:41.839Z,28.12
2022-08-10T12:11:40.853Z,28.08
2022-08-10T12:12:40.823Z,28.03
2022-08-10T12:13:49.782Z,28.01
2022-08-10T12:14:41.797Z,28.01
2022-08-10T12:15:40.795Z,27.99
2022-08-10T12:16:40.823Z,28.01
2022-08-10T12:17:40.792Z,28.01
2022-08-10T12:18:40.818Z,28.03
2022-08-10T12:20:02.690Z,28.05
2022-08-10T12:20:41.743Z,28.05
2022-08-10T12:21:40.707Z,28.06
2022-08-10T12:22:40.691Z,28.06
2022-08-10T12:23:40.690Z,28.09
2022-08-10T12:24:40.677Z,28.12
2022-08-10T12:25:56.205Z,28.18
2022-08-10T12:26:41.693Z,28.24
2022-08-10T12:27:40.647Z,28.28
2022-08-10T12:28:49.269Z,28.35
2022-08-10T12:29:41.667Z,28.41
2022-08-10T12:30:40.606Z,28.43
2022-08-10T12:31:40.606Z,28.51
2022-08-10T12:32:40.573Z,28.57
2022-08-10T12:34:02.392Z,28.58
2022-08-10T12:34:41.626Z,28.61
2022-08-10T12:35:56.142Z,28.65
2022-08-10T12:36:41.587Z,28.73
2022-08-10T12:37:40.525Z,28.79
2022-08-10T12:38:40.513Z,28.85
2022-08-10T12:39:40.578Z,28.88
2022-08-10T12:40:40.520Z,28.97
2022-08-10T12:41:44.226Z,29.03
2022-08-10T12:42:41.528Z,29.08
2022-08-10T12:44:06.743Z,29.11
2022-08-10T12:44:42.746Z,29.13
2022-08-10T12:45:40.478Z,29.23
2022-08-10T12:46:40.404Z,29.30
2022-08-10T12:47:40.373Z,29.38
2022-08-10T12:48:40.386Z,29.45
2022-08-10T12:49:40.392Z,29.52
2022-08-10T12:50:41.352Z,29.60
2022-08-10T12:51:40.393Z,29.50
2022-08-10T12:52:41.332Z,29.50
2022-08-10T12:53:40.313Z,29.51